»·PEaware :: WAT540 KAVX-CA97

WAT540 :: KAVX-CA97

FLIGHT INFORMATION

Flight Status: Arrived
Operator:
Walker Air Transport
More flights by this operator :: More flights under this callsign
Pilot: Michael R. (33632)
Aircraft: GRUMMAN AERO AA5 CHEETAH TIGER
(AA5)
More flights by this aircraft type
Origin: KAVX Catalina
United States
Destination: CA97 Christy Airstrip
United States
More flights between these airports :: More routes between these airports
Route:
File this flight plan on PilotEdge
Remarks:
Altitude:
(Current/Filed)
6,500ft
Speed:
(Current/Filed)
130kts
Departed: 13-Feb-21 02:06 AM
Arrived: 13-Feb-21 02:48 AM
Distance/Time
Traveled:
81nm/0:41
Distance/Time
To Go:
Arrived

Flight Plot

Page will automatically refresh every two minutes.

Flight plan parsing failed; only flown route is shown


Map Options




Map Legend


Flown Route
Filed Route
Departure Airport
Arrival Airport
Navaid (VOR, NDB)
Fix

Horizontal Profiles

Position Reports

Time Latitude Longitude Heading Altitude Ground
Speed
13-Feb-21 01:40 33.403698 -118.415560 133 1547ft 0kts
13-Feb-21 01:41 33.403698 -118.415560 133 1547ft 0kts
13-Feb-21 01:42 33.403698 -118.415560 133 1547ft 0kts
13-Feb-21 01:43 33.403698 -118.415560 133 1547ft 0kts
13-Feb-21 01:44 33.403698 -118.415560 133 1547ft 0kts
13-Feb-21 01:45 33.403698 -118.415560 133 1547ft 0kts
13-Feb-21 01:46 33.403698 -118.415560 133 1547ft 0kts
13-Feb-21 01:47 33.403698 -118.415560 133 1547ft 0kts
13-Feb-21 01:48 33.403698 -118.415560 133 1547ft 0kts
13-Feb-21 01:49 33.403698 -118.415560 133 1547ft 0kts
13-Feb-21 01:50 33.403698 -118.415560 133 1547ft 0kts
13-Feb-21 01:51 33.403698 -118.415560 133 1547ft 0kts
13-Feb-21 01:52 33.403698 -118.415560 133 1547ft 0kts
13-Feb-21 01:53 33.403698 -118.415560 133 1547ft 0kts
13-Feb-21 01:54 33.403698 -118.415560 133 1547ft 0kts
13-Feb-21 01:55 33.403698 -118.415560 133 1547ft 0kts
13-Feb-21 01:56 33.403698 -118.415560 133 1547ft 0kts
13-Feb-21 01:57 33.403698 -118.415560 133 1547ft 0kts
13-Feb-21 01:58 33.403698 -118.415560 133 1547ft 0kts
13-Feb-21 01:59 33.403698 -118.415560 133 1547ft 0kts
13-Feb-21 02:00 33.403698 -118.415560 133 1547ft 0kts
13-Feb-21 02:01 33.403549 -118.415594 219 1547ft 3kts
13-Feb-21 02:02 33.403113 -118.418282 233 1557ft 16kts
13-Feb-21 02:03 33.402320 -118.419554 239 1552ft 0kts
13-Feb-21 02:04 33.402478 -118.419903 15 1551ft 4kts
13-Feb-21 02:05 33.411278 -118.404092 54 2065ft 65kts
13-Feb-21 02:06 33.430284 -118.393872 338 2652ft 98kts
13-Feb-21 02:07 33.454684 -118.407912 313 3466ft 99kts
13-Feb-21 02:08 33.470239 -118.436197 299 4172ft 105kts
13-Feb-21 02:10 33.484210 -118.467223 297 4874ft 106kts
13-Feb-21 02:11 33.497882 -118.498556 297 5554ft 105kts
13-Feb-21 02:12 33.511482 -118.529825 297 6166ft 108kts
13-Feb-21 02:13 33.526261 -118.563883 297 6484ft 121kts
13-Feb-21 02:14 33.542713 -118.601816 297 6489ft 133kts
13-Feb-21 02:15 33.559950 -118.641589 297 6488ft 135kts
13-Feb-21 02:16 33.577330 -118.681731 297 6488ft 135kts
13-Feb-21 02:17 33.594743 -118.721993 297 6488ft 135kts
13-Feb-21 02:18 33.612106 -118.762194 297 6488ft 135kts
13-Feb-21 02:19 33.629483 -118.802468 297 6488ft 135kts
13-Feb-21 02:20 33.646810 -118.842673 297 6488ft 135kts
13-Feb-21 02:21 33.664180 -118.883024 297 6488ft 135kts
13-Feb-21 02:22 33.681775 -118.923192 297 6488ft 136kts
13-Feb-21 02:23 33.699244 -118.963255 297 6488ft 136kts
13-Feb-21 02:24 33.716641 -119.003644 297 6488ft 136kts
13-Feb-21 02:25 33.733965 -119.044003 297 6488ft 136kts
13-Feb-21 02:26 33.751257 -119.084357 297 6488ft 136kts
13-Feb-21 02:26 33.765673 -119.118038 297 6488ft 136kts
13-Feb-21 02:28 33.785841 -119.165218 297 6488ft 136kts
13-Feb-21 02:29 33.803039 -119.205499 297 6488ft 136kts
13-Feb-21 02:29 33.817432 -119.239248 297 6488ft 136kts
13-Feb-21 02:31 33.837538 -119.286446 297 6488ft 136kts
13-Feb-21 02:31 33.851543 -119.320333 296 6488ft 136kts
13-Feb-21 02:32 33.868435 -119.361043 297 6488ft 136kts
13-Feb-21 02:33 33.885653 -119.401685 297 6488ft 136kts
13-Feb-21 02:34 33.901629 -119.442747 290 6488ft 136kts
13-Feb-21 02:35 33.914269 -119.485669 289 6488ft 136kts
13-Feb-21 02:36 33.923727 -119.530762 281 6304ft 144kts
13-Feb-21 02:37 33.931662 -119.577516 281 6046ft 147kts
13-Feb-21 02:38 33.940057 -119.626552 282 5699ft 150kts
13-Feb-21 02:39 33.948684 -119.676602 281 5366ft 150kts
13-Feb-21 02:40 33.957584 -119.727819 281 5031ft 150kts
13-Feb-21 02:41 33.966244 -119.777372 281 4541ft 150kts
13-Feb-21 02:42 33.974797 -119.826087 281 3975ft 150kts
13-Feb-21 02:43 33.983729 -119.874782 287 3383ft 133kts
13-Feb-21 02:44 33.999092 -119.910731 345 2002ft 129kts
13-Feb-21 02:45 34.016463 -119.881710 79 720ft 108kts
13-Feb-21 02:46 34.019517 -119.855864 84 251ft 62kts
13-Feb-21 02:47 34.019477 -119.853881 212 266ft 3kts
13-Feb-21 02:48 34.019442 -119.853925 254 265ft 0kts
13-Feb-21 02:49 34.019442 -119.853925 254 265ft 0kts
13-Feb-21 02:50 34.019442 -119.853925 254 265ft 0kts
13-Feb-21 02:51 34.019442 -119.853925 254 265ft 0kts
13-Feb-21 02:52 34.019442 -119.853925 254 265ft 0kts

Navigation Log

Ident Type
Flight plan parsing failed, navigation log unavailable